Time;durP1;ratioP1;P1;durP2;ratioP2;P2;SDS_P1;SDS_P2;PMS_P1;PMS_P2;Temp;Humidity;BMP_temperature;BMP_pressure;BME280_temperature;BME280_humidity;BME280_pressure;Samples;Min_cycle;Max_cycle;Signal;HPM_P1;HPM_P2
2024/01/23 00:02:59;;;;;;;;;;;10.50;54.40;;;9.06;57.04;100836.88;12246441;19;20023;-85
2024/01/23 00:07:00;;;;;;;;;;;10.50;54.40;;;8.95;56.97;100814.88;12250899;19;20337;-85
2024/01/23 00:11:01;;;;;;;;;;;10.50;54.40;;;9.01;57.20;100822.38;12251779;19;19915;-85
2024/01/23 00:15:03;;;;;;;;;;;10.40;54.30;;;8.79;56.92;100779.13;12250093;19;19934;-85
2024/01/23 00:19:05;;;;;;;;;;;10.40;54.40;;;8.94;57.13;100818.38;12246962;19;19971;-85
2024/01/23 00:23:06;;;;;;;;;;;10.40;54.40;;;8.90;57.08;100825.50;12248372;19;20271;-85
2024/01/23 00:27:08;;;;;;;;;;;10.40;54.40;;;8.98;57.20;100835.56;12249145;19;19914;-85
2024/01/23 00:31:09;;;;;;;;;;;10.40;54.40;;;8.89;57.17;100823.81;12250327;19;19990;-85
2024/01/23 00:35:11;;;;;;;;;;;10.40;54.50;;;8.96;57.06;100822.59;12251230;19;19915;-85
2024/01/23 00:39:12;;;;;;;;;;;10.40;54.50;;;8.73;57.01;100783.78;12248517;19;19911;-85
2024/01/23 00:43:15;;;;;;;;;;;10.40;54.50;;;8.90;57.16;100804.66;12244865;19;19918;-85
2024/01/23 00:47:16;;;;;;;;;;;10.40;54.50;;;8.82;57.03;100801.56;12245450;19;19935;-85
2024/01/23 00:51:18;;;;;;;;;;;10.40;54.50;;;8.51;57.02;100761.34;12248259;19;19915;-85
2024/01/23 00:55:19;;;;;;;;;;;10.40;54.60;;;9.06;57.11;100854.28;12247972;19;19923;-85
2024/01/23 00:59:21;;;;;;;;;;;10.40;54.60;;;8.98;57.14;100859.00;12249241;19;19919;-85
2024/01/23 01:03:22;;;;;;;;;;;10.40;54.50;;;9.07;57.13;100885.47;12246046;19;20279;-85
2024/01/23 01:07:24;;;;;;;;;;;10.50;54.60;;;9.06;57.22;100885.53;12248639;19;19922;-85
2024/01/23 01:11:25;;;;;;;;;;;10.50;54.60;;;9.03;57.28;100877.88;12246413;19;20302;-85
2024/01/23 01:15:27;;;;;;;;;;;10.50;54.70;;;9.15;57.40;100902.50;12247400;19;19925;-85
2024/01/23 01:19:28;;;;;;;;;;;10.60;54.70;;;8.96;57.26;100869.47;12246977;19;20244;-85
2024/01/23 01:23:29;;;;;;;;;;;10.60;54.70;;;9.12;57.40;100890.44;12244658;19;19933;-85
2024/01/23 01:27:31;;;;;;;;;;;10.60;54.70;;;9.08;57.17;100884.56;12245500;19;19915;-86
2024/01/23 01:31:33;;;;;;;;;;;10.60;54.70;;;9.14;57.17;100901.66;12248030;19;19926;-85
2024/01/23 01:35:34;;;;;;;;;;;10.70;54.80;;;9.17;57.35;100909.31;12246459;19;19934;-85
2024/01/23 01:39:37;;;;;;;;;;;10.70;54.80;;;9.05;57.43;100883.84;12246482;19;20330;-85
2024/01/23 01:43:38;;;;;;;;;;;10.60;54.70;;;9.11;57.35;100900.97;12248118;19;19934;-85
2024/01/23 01:47:42;;;;;;;;;;;10.60;54.70;;;9.15;57.36;100903.34;12243886;19;19918;-85
2024/01/23 01:51:44;;;;;;;;;;;10.60;54.80;;;9.10;57.13;100902.72;12245751;19;20342;-86
2024/01/23 01:55:46;;;;;;;;;;;10.50;54.70;;;9.03;57.17;100902.16;12245110;19;19915;-85
2024/01/23 01:59:48;;;;;;;;;;;10.50;54.70;;;9.04;57.40;100918.63;12244873;19;19927;-85
2024/01/23 02:03:49;;;;;;;;;;;10.50;54.70;;;9.06;57.33;100927.22;12248468;19;19914;-85
2024/01/23 02:07:51;;;;;;;;;;;10.40;54.70;;;9.03;57.33;100923.00;12243979;19;19978;-85
2024/01/23 02:12:05;;;;;;;;;;;10.40;54.70;;;9.03;57.32;100929.97;12245724;19;19914;-85
2024/01/23 02:16:07;;;;;;;;;;;10.40;54.70;;;8.77;57.17;100885.09;12245862;19;19924;-85
2024/01/23 02:20:10;;;;;;;;;;;10.40;54.70;;;9.02;57.21;100929.13;12244080;19;20325;-85
2024/01/23 02:24:12;;;;;;;;;;;10.40;54.70;;;8.88;57.17;100902.84;12246806;19;19930;-85
2024/01/23 02:28:15;;;;;;;;;;;10.40;54.70;;;8.86;57.02;100908.13;12243380;19;19919;-85
2024/01/23 02:32:17;;;;;;;;;;;10.30;54.60;;;8.70;57.48;100894.13;12245524;19;19919;-85
2024/01/23 02:36:18;;;;;;;;;;;10.30;54.60;;;8.85;57.35;100924.66;12243430;19;20388;-85
2024/01/23 02:40:20;;;;;;;;;;;10.20;54.60;;;8.71;57.45;100901.00;12244202;19;19918;-85
2024/01/23 02:44:21;;;;;;;;;;;10.20;54.70;;;8.71;57.28;100907.97;12243873;19;19926;-85
2024/01/23 02:48:23;;;;;;;;;;;10.10;54.60;;;8.67;57.30;100907.28;12238158;19;19929;-85
2024/01/23 02:52:27;;;;;;;;;;;10.10;54.60;;;8.63;57.21;100913.50;12249285;19;19943;-85
2024/01/23 02:56:29;;;;;;;;;;;10.10;54.60;;;8.55;57.21;100902.59;12254243;19;19918;-85
2024/01/23 03:00:30;;;;;;;;;;;10.00;54.60;;;8.41;57.45;100893.63;12254772;19;19915;-85
2024/01/23 03:04:32;;;;;;;;;;;10.00;54.60;;;8.55;57.37;100918.22;12254758;19;19982;-85
2024/01/23 03:08:33;;;;;;;;;;;9.90;54.60;;;8.49;57.29;100911.53;12251866;19;19926;-85
2024/01/23 03:12:34;;;;;;;;;;;9.90;54.70;;;8.46;57.30;100918.63;12255075;19;19982;-85
2024/01/23 03:16:36;;;;;;;;;;;9.90;54.70;;;8.46;57.37;100929.03;12253168;19;19911;-85
2024/01/23 03:20:37;;;;;;;;;;;9.90;54.80;;;8.45;57.47;100929.94;12252328;19;19918;-85
2024/01/23 03:24:40;;;;;;;;;;;9.80;54.80;;;8.42;57.54;100941.31;12254577;19;20254;-85
2024/01/23 03:28:42;;;;;;;;;;;9.80;55.10;;;8.20;57.31;100913.56;12250112;19;19923;-85
2024/01/23 03:32:43;;;;;;;;;;;10.00;54.90;;;8.35;57.33;100935.50;12253892;19;19918;-85
2024/01/23 03:36:45;;;;;;;;;;;9.80;54.80;;;8.39;57.46;100951.84;12252985;19;19940;-85
2024/01/23 03:40:47;;;;;;;;;;;9.80;54.80;;;8.43;57.33;100963.00;12252574;19;19950;-85
2024/01/23 03:44:48;;;;;;;;;;;9.80;54.80;;;8.33;57.33;100939.91;12251407;19;20430;-85
2024/01/23 03:48:50;;;;;;;;;;;9.80;54.80;;;8.37;57.45;100954.50;12250174;19;19922;-85
2024/01/23 03:52:51;;;;;;;;;;;10.00;54.90;;;8.29;57.44;100943.56;12252280;19;19947;-85
2024/01/23 03:56:53;;;;;;;;;;;9.80;54.80;;;8.17;57.51;100931.06;12250074;19;19918;-85
2024/01/23 04:00:57;;;;;;;;;;;9.80;54.80;;;8.26;57.60;100941.06;12250045;19;19943;-85
2024/01/23 04:04:59;;;;;;;;;;;9.80;54.90;;;8.33;57.28;100960.72;12249795;19;19918;-86
2024/01/23 04:09:01;;;;;;;;;;;9.80;54.80;;;8.28;57.45;100944.47;12247557;19;19915;-85
2024/01/23 04:13:02;;;;;;;;;;;9.80;54.80;;;8.16;57.48;100943.25;12250757;19;20326;-85
2024/01/23 04:17:04;;;;;;;;;;;9.80;54.80;;;8.25;57.37;100964.56;12248917;19;19982;-85
2024/01/23 04:21:06;;;;;;;;;;;9.80;54.80;;;8.38;57.48;100989.16;12249173;19;19927;-85
2024/01/23 04:25:10;;;;;;;;;;;9.80;54.80;;;8.37;57.59;100992.66;12250837;19;19919;-85
2024/01/23 04:29:11;;;;;;;;;;;9.80;54.80;;;8.05;57.55;100937.63;12246217;19;19923;-85
2024/01/23 04:33:13;;;;;;;;;;;9.80;54.80;;;8.17;57.42;100970.09;12252091;19;19948;-85
2024/01/23 04:37:14;;;;;;;;;;;9.90;54.80;;;8.28;57.59;101012.13;12248047;19;19922;-85
2024/01/23 04:41:16;;;;;;;;;;;9.70;54.70;;;8.29;57.51;101015.56;12250016;19;19915;-85
2024/01/23 04:49:25;;;;;;;;;;;9.70;54.70;;;8.06;57.50;101012.13;12251566;19;19921;-85
2024/01/23 04:53:30;;;;;;;;;;;9.70;54.70;;;8.20;57.63;101046.25;12249241;19;20288;-85
2024/01/23 04:57:31;;;;;;;;;;;9.90;54.90;;;8.12;57.59;101052.66;12242651;19;19951;-85
2024/01/23 05:01:33;;;;;;;;;;;9.90;54.90;;;8.23;57.63;101076.50;12249883;19;19974;-86
2024/01/23 05:05:34;;;;;;;;;;;9.60;54.70;;;8.20;57.52;101081.81;12252046;19;20302;-85
2024/01/23 05:09:36;;;;;;;;;;;9.60;54.80;;;8.25;57.49;101092.06;12251687;19;19922;-85
2024/01/23 05:13:41;;;;;;;;;;;9.60;54.80;;;8.17;57.43;101103.59;12249446;19;19919;-86
2024/01/23 05:17:42;;;;;;;;;;;9.60;54.80;;;8.12;57.43;101102.09;12247613;19;20326;-85
2024/01/23 05:21:44;;;;;;;;;;;9.60;54.90;;;8.15;57.37;101126.22;12248515;19;19929;-86
2024/01/23 05:25:45;;;;;;;;;;;9.60;54.90;;;8.17;57.51;101139.16;12246164;19;19923;-85
2024/01/23 05:29:46;;;;;;;;;;;9.60;54.80;;;8.15;57.63;101146.19;12246883;19;19915;-85
2024/01/23 05:33:48;;;;;;;;;;;9.60;55.00;;;7.94;57.46;101119.25;12244521;19;19952;-85
2024/01/23 05:37:49;;;;;;;;;;;9.80;55.10;;;8.08;57.48;101155.97;12248999;19;19925;-85
2024/01/23 05:41:51;;;;;;;;;;;9.60;55.00;;;8.13;57.65;101158.41;12247091;19;20607;-86
2024/01/23 05:45:53;;;;;;;;;;;9.50;55.00;;;8.10;57.54;101164.59;12249312;19;19935;-86
2024/01/23 05:49:54;;;;;;;;;;;9.60;55.10;;;7.87;57.73;101138.59;12249350;19;19926;-86
2024/01/23 05:53:56;;;;;;;;;;;9.50;55.00;;;8.00;57.69;101159.78;12249052;19;20265;-86
2024/01/23 05:57:58;;;;;;;;;;;9.60;55.10;;;8.03;57.60;101173.50;12248182;19;19974;-86
2024/01/23 06:01:59;;;;;;;;;;;9.50;55.00;;;8.05;57.57;101196.88;12248370;19;19931;-86
2024/01/23 06:06:01;;;;;;;;;;;9.60;55.00;;;8.04;57.46;101195.16;12248776;19;19927;-86
2024/01/23 06:10:02;;;;;;;;;;;9.50;55.00;;;8.07;57.73;101205.44;12247669;19;19926;-86
2024/01/23 06:14:04;;;;;;;;;;;9.50;54.90;;;8.04;57.68;101221.16;12249577;19;19907;-86
2024/01/23 06:18:07;;;;;;;;;;;9.50;54.90;;;8.01;57.49;101218.69;12246354;19;20357;-86
2024/01/23 06:22:09;;;;;;;;;;;9.50;54.90;;;8.01;57.53;101236.88;12245419;19;19953;-86
2024/01/23 06:26:10;;;;;;;;;;;9.50;54.90;;;7.96;57.71;101232.69;12246251;19;19943;-86
2024/01/23 06:30:13;;;;;;;;;;;9.40;54.90;;;7.88;57.68;101231.28;12258117;19;20551;-86
2024/01/23 06:34:14;;;;;;;;;;;9.40;54.90;;;7.95;57.54;101249.22;12258367;19;19923;-85
2024/01/23 06:38:16;;;;;;;;;;;9.40;55.00;;;7.59;57.47;101198.50;12257306;19;19915;-85
2024/01/23 06:42:17;;;;;;;;;;;9.40;55.00;;;7.68;57.71;101219.00;12258861;19;19923;-86
2024/01/23 06:46:20;;;;;;;;;;;9.40;55.00;;;7.81;57.65;101251.47;12261876;19;20311;-88
2024/01/23 06:50:21;;;;;;;;;;;9.40;55.00;;;7.86;57.82;101262.56;12264972;19;19907;-86
2024/01/23 06:54:23;;;;;;;;;;;9.40;55.00;;;7.61;57.84;101223.53;12262616;19;19948;-86
2024/01/23 06:58:24;;;;;;;;;;;9.30;55.00;;;7.84;57.57;101266.94;12259372;19;19918;-85
2024/01/23 07:02:25;;;;;;;;;;;9.30;55.00;;;7.77;57.86;101278.44;12261042;19;20653;-89
2024/01/23 07:06:27;;;;;;;;;;;9.30;55.00;;;7.52;57.83;101235.13;12254871;19;19927;-85
2024/01/23 07:10:29;;;;;;;;;;;9.30;55.00;;;7.52;57.67;101244.66;12253382;19;19956;-84
2024/01/23 07:14:31;;;;;;;;;;;9.30;55.00;;;7.85;57.72;101319.78;12254341;19;19915;-84
2024/01/23 07:18:32;;;;;;;;;;;9.30;55.00;;;7.84;57.72;101313.75;12252346;19;20471;-85
2024/01/23 07:22:33;;;;;;;;;;;9.30;55.00;;;7.76;57.81;101307.97;12250858;19;19911;-86
2024/01/23 07:26:35;;;;;;;;;;;9.30;55.00;;;7.53;57.67;101280.13;12253000;19;19924;-89
2024/01/23 07:30:36;;;;;;;;;;;9.30;55.00;;;7.75;57.89;101320.13;12254251;19;19911;-85
2024/01/23 07:34:37;;;;;;;;;;;9.30;55.00;;;7.73;57.70;101311.50;12254250;19;20286;-86
2024/01/23 07:38:39;;;;;;;;;;;9.30;55.00;;;7.73;57.77;101328.88;12248657;19;19918;-86
2024/01/23 07:42:40;;;;;;;;;;;9.30;55.10;;;7.84;57.58;101350.16;12251003;19;20382;-86
2024/01/23 07:46:42;;;;;;;;;;;9.40;55.00;;;7.83;57.75;101340.66;12252637;19;19919;-86
2024/01/23 07:50:43;;;;;;;;;;;9.40;55.00;;;7.87;57.74;101337.03;12245603;19;19926;-85
2024/01/23 07:54:45;;;;;;;;;;;9.30;55.00;;;7.84;57.93;101331.94;12252301;19;19982;-86
2024/01/23 07:58:46;;;;;;;;;;;9.30;55.10;;;7.90;57.81;101347.34;12249872;19;19949;-87
2024/01/23 08:02:48;;;;;;;;;;;9.30;55.10;;;7.93;57.79;101357.63;12249052;19;20318;-86
2024/01/23 08:06:49;;;;;;;;;;;9.40;55.10;;;7.97;57.83;101350.59;12250338;19;19929;-86
2024/01/23 08:10:51;;;;;;;;;;;9.40;55.10;;;7.70;57.69;101300.38;12251309;19;19923;-86
2024/01/23 08:14:52;;;;;;;;;;;9.40;55.20;;;8.04;57.71;101361.63;12251301;19;20259;-86
2024/01/23 08:18:54;;;;;;;;;;;9.50;55.30;;;7.91;57.69;101319.56;12250042;19;19940;-86
2024/01/23 08:22:55;;;;;;;;;;;9.70;55.30;;;7.97;57.89;101324.59;12248567;19;19943;-86
2024/01/23 08:26:57;;;;;;;;;;;9.50;55.20;;;8.01;57.94;101325.31;12248749;19;20285;-86
2024/01/23 08:31:03;;;;;;;;;;;9.60;55.20;;;8.13;57.96;101351.75;12251077;19;19955;-86
2024/01/23 08:35:06;;;;;;;;;;;9.60;55.30;;;7.96;57.85;101313.31;12253299;19;19915;-87
2024/01/23 08:39:08;;;;;;;;;;;9.60;55.20;;;8.15;57.76;101368.13;12247086;19;19954;-87
2024/01/23 08:43:09;;;;;;;;;;;9.70;55.30;;;8.23;58.04;101375.69;12237926;19;20239;-86
2024/01/23 08:47:11;;;;;;;;;;;9.70;55.20;;;8.29;57.77;101387.63;12245144;19;19914;-86
2024/01/23 08:51:13;;;;;;;;;;;9.80;55.30;;;8.32;57.92;101391.00;12249678;19;19926;-85
2024/01/23 08:55:14;;;;;;;;;;;9.80;55.20;;;8.22;58.05;101374.00;12246890;19;20312;-86
2024/01/23 08:59:16;;;;;;;;;;;9.80;55.10;;;8.28;58.00;101384.19;12242256;19;19923;-87
2024/01/23 09:03:17;;;;;;;;;;;9.90;55.30;;;8.31;57.80;101383.22;12243961;19;19919;-86
2024/01/23 09:07:19;;;;;;;;;;;9.90;55.10;;;8.20;57.89;101368.00;12243174;19;19918;-86
2024/01/23 09:11:20;;;;;;;;;;;9.90;55.10;;;8.47;58.01;101422.59;12249866;19;19918;-86
2024/01/23 09:15:22;;;;;;;;;;;9.90;55.10;;;8.44;58.01;101427.91;12244257;19;19923;-87
2024/01/23 09:19:23;;;;;;;;;;;10.00;55.10;;;8.38;57.77;101428.97;12249639;19;19918;-87
2024/01/23 09:23:24;;;;;;;;;;;10.00;55.10;;;8.50;58.13;101444.16;12246096;19;20258;-85
2024/01/23 09:27:26;;;;;;;;;;;10.00;55.10;;;8.51;57.98;101435.47;12245458;19;19911;-86
2024/01/23 09:31:27;;;;;;;;;;;10.00;55.10;;;8.52;58.05;101423.28;12246639;19;20009;-86
2024/01/23 09:35:30;;;;;;;;;;;10.10;55.20;;;8.59;57.96;101449.06;12242398;19;20385;-87
2024/01/23 09:39:32;;;;;;;;;;;10.10;55.60;;;8.71;57.84;101463.38;12244922;19;19955;-87
2024/01/23 09:43:34;;;;;;;;;;;10.20;55.20;;;8.77;58.01;101468.38;12240318;19;19937;-86
2024/01/23 09:47:36;;;;;;;;;;;10.20;55.10;;;8.77;57.89;101464.91;12241406;19;19926;-87
2024/01/23 09:51:47;;;;;;;;;;;10.30;55.20;;;8.92;57.95;101510.41;12245924;19;19922;-86
2024/01/23 09:55:48;;;;;;;;;;;10.40;55.10;;;8.84;57.83;101475.06;12242779;19;19939;-86
2024/01/23 09:59:51;;;;;;;;;;;10.40;55.10;;;8.97;57.86;101487.66;12243500;19;19936;-87
2024/01/23 10:03:56;;;;;;;;;;;10.50;55.10;;;8.95;57.88;101484.25;12248353;19;19919;-87
2024/01/23 10:07:57;;;;;;;;;;;10.50;55.00;;;9.03;57.84;101490.88;12253801;19;20643;-86
2024/01/23 10:11:59;;;;;;;;;;;10.50;55.00;;;8.82;57.82;101450.81;12257411;19;19922;-86
2024/01/23 10:16:00;;;;;;;;;;;10.50;54.90;;;9.12;57.86;101497.50;12256564;19;19948;-87
2024/01/23 10:20:01;;;;;;;;;;;10.60;54.90;;;9.19;57.91;101493.78;12258025;19;19918;-86
2024/01/23 10:24:05;;;;;;;;;;;10.70;54.90;;;9.11;57.92;101479.34;12259751;19;19923;-87
2024/01/23 10:28:10;;;;;;;;;;;10.70;54.90;;;9.19;57.99;101491.16;12255754;19;19980;-86
2024/01/23 10:32:12;;;;;;;;;;;10.70;54.90;;;9.19;57.97;101485.13;12256979;19;20250;-87
2024/01/23 10:36:14;;;;;;;;;;;10.80;54.90;;;9.24;58.00;101484.03;12257494;19;19994;-86
2024/01/23 10:40:23;;;;;;;;;;;10.80;54.90;;;9.38;57.87;101513.94;12254041;19;20273;-85
2024/01/23 10:44:26;;;;;;;;;;;10.80;54.90;;;9.40;57.93;101522.56;12257687;19;19922;-86
2024/01/23 10:48:28;;;;;;;;;;;10.90;54.90;;;9.36;58.01;101513.16;12236269;19;21675;-86
2024/01/23 10:52:33;;;;;;;;;;;10.90;54.90;;;9.46;57.90;101523.16;12245014;19;19915;-87
2024/01/23 10:56:43;;;;;;;;;;;10.90;54.70;;;9.46;57.98;101535.38;12253851;19;19943;-87
2024/01/23 11:00:46;;;;;;;;;;;11.00;54.70;;;9.44;57.82;101529.34;12253731;19;19910;-87
2024/01/23 11:04:49;;;;;;;;;;;11.00;54.70;;;9.38;57.75;101521.78;12255344;19;19928;-86
2024/01/23 11:09:02;;;;;;;;;;;11.10;54.70;;;9.54;57.77;101535.91;12250169;19;19932;-87
2024/01/23 11:13:15;;;;;;;;;;;11.10;54.70;;;9.65;57.82;101562.44;12254862;19;19982;-91
2024/01/23 11:17:17;;;;;;;;;;;11.10;54.70;;;9.60;57.80;101551.31;12245807;19;20330;-86
2024/01/23 11:21:22;;;;;;;;;;;11.10;54.70;;;9.70;57.86;101565.72;12254751;19;19918;-86
2024/01/23 11:25:23;;;;;;;;;;;11.10;54.60;;;9.75;57.92;101576.00;12252952;19;19931;-87
2024/01/23 11:29:25;;;;;;;;;;;11.20;54.60;;;9.75;57.98;101574.22;12252937;19;19927;-85
2024/01/23 11:33:28;;;;;;;;;;;11.30;54.70;;;9.79;57.80;101568.88;12254352;19;20317;-86
2024/01/23 11:37:33;;;;;;;;;;;11.30;54.60;;;9.86;57.72;101583.41;12252331;19;19939;-86
2024/01/23 11:41:36;;;;;;;;;;;11.30;54.30;;;9.88;57.78;101594.59;12255507;19;19919;-86
2024/01/23 11:45:38;;;;;;;;;;;11.30;54.60;;;9.88;57.83;101602.44;12252450;19;19926;-87
2024/01/23 11:49:41;;;;;;;;;;;11.40;54.60;;;9.85;57.94;101590.34;12252931;19;19919;-86
2024/01/23 11:53:42;;;;;;;;;;;11.40;54.60;;;9.85;57.75;101566.03;12255024;19;20253;-86
2024/01/23 11:57:44;;;;;;;;;;;11.40;54.30;;;9.77;57.92;101548.06;12250320;19;19918;-86
2024/01/23 12:01:45;;;;;;;;;;;11.50;54.50;;;9.90;57.64;101582.38;12251060;19;19918;-88
2024/01/23 12:05:47;;;;;;;;;;;11.50;54.50;;;10.07;57.88;101607.78;12250493;19;20249;-88
2024/01/23 12:09:49;;;;;;;;;;;11.50;54.60;;;10.07;57.78;101613.88;12252341;19;19929;-86
2024/01/23 12:13:50;;;;;;;;;;;11.50;54.50;;;10.02;57.67;101602.78;12250624;19;19947;-86
2024/01/23 12:17:51;;;;;;;;;;;11.60;54.40;;;9.96;57.79;101597.78;12250036;19;19924;-87
2024/01/23 12:21:53;;;;;;;;;;;11.60;54.50;;;10.10;57.78;101618.13;12249952;19;19918;-86
2024/01/23 12:25:55;;;;;;;;;;;11.60;54.90;;;9.96;57.76;101618.66;12249482;19;19925;-87
2024/01/23 12:29:57;;;;;;;;;;;11.60;54.40;;;10.16;57.58;101638.78;12250207;19;19926;-87
2024/01/23 12:33:59;;;;;;;;;;;11.70;54.20;;;10.23;57.83;101660.25;12250897;19;19949;-86
2024/01/23 12:38:01;;;;;;;;;;;11.70;54.10;;;10.00;57.72;101637.66;12249723;19;19926;-86
2024/01/23 12:42:03;;;;;;;;;;;11.70;54.30;;;10.19;57.69;101657.75;12249141;19;20310;-86
2024/01/23 12:46:04;;;;;;;;;;;11.80;54.30;;;10.27;57.57;101670.56;12250498;19;20005;-87
2024/01/23 12:50:12;;;;;;;;;;;11.80;54.30;;;10.23;57.56;101657.66;12250351;19;19918;-87
2024/01/23 12:54:14;;;;;;;;;;;11.80;54.30;;;10.23;57.78;101657.66;12249469;19;19935;-88
2024/01/23 12:58:15;;;;;;;;;;;11.80;54.20;;;10.16;57.70;101642.22;12248142;19;19930;-87
2024/01/23 13:02:17;;;;;;;;;;;11.80;54.30;;;10.34;57.70;101665.94;12247875;19;20306;-86
2024/01/23 13:06:19;;;;;;;;;;;11.80;54.20;;;10.42;57.61;101682.16;12250287;19;19926;-87
2024/01/23 13:10:20;;;;;;;;;;;11.90;54.30;;;10.47;57.59;101688.03;12249328;19;20301;-88
2024/01/23 13:14:22;;;;;;;;;;;11.90;54.20;;;10.38;57.64;101662.31;12252293;19;19922;-89
2024/01/23 13:18:24;;;;;;;;;;;11.90;54.20;;;10.48;57.68;101681.09;12246134;19;20315;-87
2024/01/23 13:22:25;;;;;;;;;;;11.90;54.20;;;10.41;57.75;101662.19;12250035;19;19917;-87
2024/01/23 13:26:27;;;;;;;;;;;12.00;54.10;;;10.44;57.66;101666.44;12249153;19;19911;-87
2024/01/23 13:30:30;;;;;;;;;;;12.00;54.20;;;10.57;57.49;101689.41;12246821;19;19918;-87
2024/01/23 13:34:32;;;;;;;;;;;12.00;53.10;;;10.37;57.68;101644.97;12249392;19;19940;-87
2024/01/23 13:38:34;;;;;;;;;;;12.00;53.90;;;10.51;57.57;101679.19;12248211;19;19911;-88
2024/01/23 13:42:35;;;;;;;;;;;12.00;54.00;;;10.50;57.57;101660.97;12248446;19;19949;-87
2024/01/23 13:46:36;;;;;;;;;;;12.00;53.70;;;10.58;57.60;101691.09;12247332;19;20231;-89
2024/01/23 13:50:38;;;;;;;;;;;12.10;53.90;;;10.39;57.59;101675.28;12245962;19;19918;-87
2024/01/23 13:54:39;;;;;;;;;;;12.10;53.80;;;10.62;57.69;101724.03;12248229;19;19923;-88
2024/01/23 13:58:40;;;;;;;;;;;12.10;53.70;;;10.49;57.56;101717.56;12244131;19;19923;-87
2024/01/23 14:02:42;;;;;;;;;;;12.10;53.50;;;10.50;57.40;101727.09;12243317;19;19919;-87
2024/01/23 14:06:43;;;;;;;;;;;12.10;53.50;;;10.32;57.69;101699.97;12246343;19;20002;-87
2024/01/23 14:10:45;;;;;;;;;;;12.10;53.70;;;10.41;57.44;101736.16;12246716;19;20345;-87
2024/01/23 14:14:46;;;;;;;;;;;12.10;53.90;;;10.57;57.50;101778.19;12249676;19;19903;-87
2024/01/23 14:18:48;;;;;;;;;;;12.10;53.90;;;10.63;57.52;101811.91;12243812;19;19992;-87
2024/01/23 14:22:49;;;;;;;;;;;12.10;53.30;;;10.62;57.49;101806.75;12243670;19;19910;-86
2024/01/23 14:26:50;;;;;;;;;;;12.10;53.70;;;10.54;57.34;101807.03;12244503;19;19986;-87
2024/01/23 14:30:52;;;;;;;;;;;12.10;53.60;;;10.66;57.50;101847.50;12246574;19;19915;-87
2024/01/23 14:34:53;;;;;;;;;;;12.10;53.70;;;10.58;57.33;101841.72;12246574;19;20622;-87
2024/01/23 14:38:55;;;;;;;;;;;12.00;53.50;;;10.62;57.34;101833.72;12245136;19;19927;-87
2024/01/23 14:42:56;;;;;;;;;;;12.10;53.60;;;10.38;57.44;101816.38;12244238;19;20553;-87
2024/01/23 14:47:04;;;;;;;;;;;12.10;53.30;;;10.64;57.35;101851.97;12242831;19;19914;-87
2024/01/23 14:51:06;;;;;;;;;;;12.10;53.40;;;10.44;57.38;101829.19;12258949;19;19970;-87
2024/01/23 14:55:07;;;;;;;;;;;12.10;53.60;;;10.55;57.24;101853.13;12257564;19;19930;-87
2024/01/23 14:59:09;;;;;;;;;;;12.10;53.40;;;10.67;57.29;101882.34;12254826;19;19911;-87
2024/01/23 15:03:10;;;;;;;;;;;12.10;53.50;;;10.65;57.20;101882.41;12253120;19;19955;-87
2024/01/23 15:07:12;;;;;;;;;;;12.10;53.50;;;10.63;57.33;101879.81;12258023;19;20326;-87
2024/01/23 15:11:13;;;;;;;;;;;12.10;53.70;;;10.54;57.28;101858.44;12258337;19;19974;-88
2024/01/23 15:15:15;;;;;;;;;;;12.10;53.60;;;10.57;57.27;101879.22;12254841;19;19948;-87
2024/01/23 15:19:17;;;;;;;;;;;12.10;53.60;;;10.65;57.36;101894.59;12243484;19;19937;-87
2024/01/23 15:23:18;;;;;;;;;;;12.00;53.60;;;10.58;57.18;101894.81;12251285;19;19919;-87
2024/01/23 15:27:20;;;;;;;;;;;12.10;53.30;;;10.47;57.32;101876.06;12246755;19;19934;-87
2024/01/23 15:31:21;;;;;;;;;;;12.00;53.50;;;10.56;57.34;101890.59;12256765;19;19919;-87
2024/01/23 15:35:23;;;;;;;;;;;12.00;53.30;;;10.46;57.15;101883.97;12249736;19;19947;-87
2024/01/23 15:39:24;;;;;;;;;;;12.00;53.50;;;10.29;57.16;101848.00;12256615;19;20246;-87
2024/01/23 15:43:26;;;;;;;;;;;12.00;53.50;;;10.56;57.28;101907.09;12252199;19;19932;-88
2024/01/23 15:47:30;;;;;;;;;;;12.00;53.60;;;10.50;57.00;101899.47;12252747;19;19919;-87
2024/01/23 15:51:31;;;;;;;;;;;11.90;53.50;;;10.49;57.23;101895.16;12255447;19;19948;-88
2024/01/23 15:55:33;;;;;;;;;;;12.00;53.40;;;10.25;57.27;101854.22;12254831;19;19915;-87
2024/01/23 15:59:34;;;;;;;;;;;11.90;53.50;;;10.26;57.16;101853.31;12252643;19;19918;-88
2024/01/23 16:03:36;;;;;;;;;;;11.90;53.50;;;10.31;57.17;101851.44;12253560;19;19911;-88
2024/01/23 16:07:37;;;;;;;;;;;11.90;53.40;;;10.38;57.16;101873.81;12248911;19;19915;-87
2024/01/23 16:11:39;;;;;;;;;;;11.90;53.80;;;10.38;57.20;101876.41;12256383;19;20332;-87
2024/01/23 16:15:41;;;;;;;;;;;11.80;53.40;;;10.33;57.07;101871.34;12252855;19;19943;-87
2024/01/23 16:19:43;;;;;;;;;;;11.80;53.40;;;10.32;57.13;101871.44;12251747;19;19930;-87
2024/01/23 16:23:44;;;;;;;;;;;11.80;53.40;;;10.27;57.02;101891.59;12249673;19;19940;-87
2024/01/23 16:27:50;;;;;;;;;;;11.70;53.30;;;10.22;57.11;101883.06;12245786;19;21311;-87
2024/01/23 16:31:52;;;;;;;;;;;11.70;53.40;;;10.13;57.12;101881.63;12239899;19;19918;-87
2024/01/23 16:35:53;;;;;;;;;;;11.70;53.40;;;10.19;56.84;101903.13;12246250;19;19927;-87
2024/01/23 16:39:55;;;;;;;;;;;11.60;53.20;;;10.13;57.11;101903.34;12246133;19;20348;-87
2024/01/23 16:43:56;;;;;;;;;;;11.60;53.20;;;10.19;57.01;101908.34;12243456;19;19986;-88
2024/01/23 16:47:58;;;;;;;;;;;11.60;53.30;;;10.10;57.00;101892.16;12246885;19;19932;-88
2024/01/23 16:52:00;;;;;;;;;;;11.60;53.30;;;9.88;57.16;101869.44;12247189;19;20302;-87
2024/01/23 16:56:02;;;;;;;;;;;11.50;53.30;;;10.00;57.16;101881.19;12246948;19;19935;-87
2024/01/23 17:00:04;;;;;;;;;;;11.60;53.30;;;10.12;56.86;101912.06;12245230;19;19923;-87
2024/01/23 17:04:06;;;;;;;;;;;11.60;53.40;;;10.10;57.01;101899.97;12243169;19;19934;-87
2024/01/23 17:08:07;;;;;;;;;;;11.60;53.40;;;10.16;56.94;101916.28;12245173;19;19915;-87
2024/01/23 17:12:09;;;;;;;;;;;11.60;53.30;;;10.07;56.96;101907.91;12246205;19;20343;-87
2024/01/23 17:16:11;;;;;;;;;;;11.60;53.20;;;10.18;56.85;101922.31;12245358;19;19978;-87
2024/01/23 17:20:12;;;;;;;;;;;11.60;53.30;;;10.17;56.79;101928.44;12249120;19;19923;-87
2024/01/23 17:24:14;;;;;;;;;;;11.50;53.20;;;9.99;56.86;101900.38;12247289;19;19915;-88
2024/01/23 17:28:16;;;;;;;;;;;11.50;53.20;;;10.09;56.77;101927.84;12246763;19;19946;-88
2024/01/23 17:32:17;;;;;;;;;;;11.50;53.20;;;10.05;57.00;101934.09;12240381;19;20358;-88
2024/01/23 17:36:19;;;;;;;;;;;11.50;53.20;;;9.93;56.81;101916.22;12248524;19;20343;-88
2024/01/23 17:40:20;;;;;;;;;;;11.50;53.20;;;9.65;56.77;101872.78;12249103;19;19915;-87
2024/01/23 17:44:22;;;;;;;;;;;11.30;53.50;;;9.62;56.75;101864.22;12245528;19;19922;-88
2024/01/23 17:48:23;;;;;;;;;;;11.30;53.20;;;9.74;56.98;101893.34;12247339;19;19915;-87
2024/01/23 17:52:24;;;;;;;;;;;11.20;53.20;;;9.82;56.78;101908.75;12248875;19;19915;-88
2024/01/23 17:56:26;;;;;;;;;;;11.20;53.30;;;9.78;56.73;101901.09;12248296;19;20359;-88
2024/01/23 18:00:30;;;;;;;;;;;11.20;53.30;;;9.66;56.77;101887.53;12250165;19;19923;-88
2024/01/23 18:04:32;;;;;;;;;;;11.10;53.20;;;9.67;56.72;101893.63;12247014;19;19927;-88
2024/01/23 18:08:33;;;;;;;;;;;11.10;53.30;;;9.57;56.63;101871.34;12247215;19;19934;-87
2024/01/23 18:12:35;;;;;;;;;;;11.10;53.30;;;9.29;56.87;101841.78;12249416;19;19923;-88
2024/01/23 18:16:36;;;;;;;;;;;11.00;53.30;;;9.56;56.85;101886.13;12246582;19;20338;-88
2024/01/23 18:20:38;;;;;;;;;;;11.00;53.20;;;9.50;56.82;101888.91;12247594;19;19922;-88
2024/01/23 18:24:42;;;;;;;;;;;10.90;53.30;;;9.55;56.64;101909.63;12257171;19;20349;-87